KAIG

Langlade County Airport

Antigo, Wisconsin, USA
METAR KAIG 240315Z AUTO 13007KT 10SM CLR 11/10 A3017 RMK AO2 T01090104
Observed Flight Rules
Sep-24 @ 03:15 UTC (31 minutes ago) Visual Flight Rules
Wind Visibility Clouds
130° at 7 knots 10 miles
  • Clear skies
Temperatures Readings
Current 11°C / 52°F
Dewpoint 10°C / 50°F
Humidity 94%
Altimeter 30.17" Hg
Pressure 1022 hPa
Elevation 464
METAR KAIG 240315Z AUTO 13007KT 10SM CLR 11/10 A3017 RMK AO2 T01090104
Observed Flight Rules
Sep-24 @ 03:15 UTC
(31 minutes ago)
VFR
Wind Visibility
130° at 7 knots 10 miles
Clouds
  • Clear skies
Temperature Dewpoint
11°C / 52°F 10°C / 50°F
Humidity Altimeter Pressure
94% 30.17" Hg 1022 hPa